Topock, AZ

1:41 PM MST on November 26, 2014 (GMT -0700)
Laughlin-Bullhead International | Change Station
CLOSE
Current Station
Airport
Location: Bullhead City,
Elevation: 696 ft
Nearby Weather Stations

Elev 696 ft 35.16 °N, 114.56 °W | Updated 6 minutes ago

Clear
Clear
72 °F
Feels Like 72 °F
N
21
Wind Variable Wind from NNE

Today
High -- | Low -- °F
--% Chance of Precip.
Yesterday
High -- | Low -- °F
Precip. -- in
7:22 AM 5:27 PM
Waxing Crescent, 22% visible
Pressure 30.26 in
Visibility 10.0 miles
Clouds Clear
Dew Point 14 °F
Humidity 11%
Rainfall 0.00 in
Snow Depth Not available.
UV 3 out of 12
Pollen 2.70 out of 12
Air Quality Not available.
Flu Activity Not available.
METAR KIFP 262035Z AUTO 02018KT 10SM CLR 22/M10 A3026 RMK AO2

More Conditions Fewer Conditions

Pressure 30.26 in
Visibility 10.0 miles
Clouds Clear
Dew Point 14 °F
Humidity 11%
Rainfall 0.00 in
Snow Depth Not available.
UV 3 out of 12
Pollen 2.70 out of 12
Air Quality Not available.
Flu Activity Not available.
METAR KIFP 262035Z AUTO 02018KT 10SM CLR 22/M10 A3026 RMK AO2

More Conditions Fewer Conditions

10-Day Weather Forecast

Almanac

Astronomy

Nov. 26, 2014 Rise Set
Actual Time
Civil Twilight
Nautical Twilight
Astronomical Twilight
Moon
Length of Visible Light
Length of Day
Tomorrow will be .
, % of the Moon is Illuminated

Today's Extremes

State Highs State Lows

Community

WunderPhotos

Upload Photos

1,773,860 photos uploaded!

WunderBlogs® & News

Nearby

Air Quality

  Air Quality AQ Index Pollutant
Not available.

Snow Depth

Station Depth Elevation

Earthquake Activity

City Distance Mag. Time & Date
Minimum magnitude displayed is 2.5.

Coastal Water Temperatures

Place Temperature

Nearby Weather Stations